Time;durP1;ratioP1;P1;durP2;ratioP2;P2;SDS_P1;SDS_P2;PMS_P1;PMS_P2;Temp;Humidity;BMP_temperature;BMP_pressure;BME280_temperature;BME280_humidity;BME280_pressure;Samples;Min_cycle;Max_cycle;Signal;HPM_P1;HPM_P2
2022/03/25 00:01:00;;;;;;;169.83;71.43;;;;;;;;;;5082212;28;20031;-67
2022/03/25 00:03:25;;;;;;;169.37;74.47;;;;;;;;;;5095121;28;20137;-70
2022/03/25 00:05:51;;;;;;;170.10;73.63;;;;;;;;;;5087060;28;20103;-70
2022/03/25 00:08:17;;;;;;;181.17;77.00;;;;;;;;;;5081675;28;20024;-70
2022/03/25 00:10:42;;;;;;;186.87;77.73;;;;;;;;;;5081202;28;20024;-70
2022/03/25 00:13:08;;;;;;;188.63;78.63;;;;;;;;;;5081787;28;20365;-70
2022/03/25 00:15:38;;;;;;;167.30;71.43;;;;;;;;;;5081649;28;20576;-70
2022/03/25 00:18:04;;;;;;;197.97;82.27;;;;;;;;;;5081674;28;20027;-70
2022/03/25 00:20:29;;;;;;;193.33;83.07;;;;;;;;;;5081693;28;20027;-70
2022/03/25 00:22:54;;;;;;;184.93;78.57;;;;;;;;;;5081347;28;20024;-70
2022/03/25 00:25:20;;;;;;;206.57;83.90;;;;;;;;;;5081114;28;20562;-70
2022/03/25 00:27:45;;;;;;;209.63;85.30;;;;;;;;;;5081923;28;20702;-70
2022/03/25 00:30:10;;;;;;;265.33;96.27;;;;;;;;;;5081255;28;20099;-70
2022/03/25 00:32:36;;;;;;;287.63;105.47;;;;;;;;;;5081599;28;20024;-70
2022/03/25 00:35:02;;;;;;;290.63;105.80;;;;;;;;;;5081161;28;20024;-70
2022/03/25 00:37:27;;;;;;;273.40;103.70;;;;;;;;;;5076016;28;20493;-70
2022/03/25 00:39:52;;;;;;;255.80;99.03;;;;;;;;;;5080752;28;20077;-70
2022/03/25 00:42:18;;;;;;;262.27;100.17;;;;;;;;;;5085391;28;20424;-70
2022/03/25 00:44:44;;;;;;;270.63;101.13;;;;;;;;;;5079633;28;20043;-70
2022/03/25 00:47:09;;;;;;;257.97;100.47;;;;;;;;;;5084028;28;20032;-70
2022/03/25 00:49:35;;;;;;;223.30;89.67;;;;;;;;;;5078122;28;20059;-69
2022/03/25 00:52:00;;;;;;;242.10;95.30;;;;;;;;;;5080407;28;20044;-69
2022/03/25 00:54:27;;;;;;;259.10;99.07;;;;;;;;;;5079052;28;20181;-70
2022/03/25 00:56:52;;;;;;;261.80;101.07;;;;;;;;;;5079504;28;20130;-70
2022/03/25 00:59:17;;;;;;;283.60;103.67;;;;;;;;;;5079807;28;20044;-69
2022/03/25 01:01:42;;;;;;;256.73;99.63;;;;;;;;;;5080195;28;20060;-69
2022/03/25 01:04:08;;;;;;;253.23;98.03;;;;;;;;;;5079775;28;20031;-69
2022/03/25 01:06:33;;;;;;;257.80;96.37;;;;;;;;;;5080136;28;20066;-70
2022/03/25 01:08:59;;;;;;;284.90;105.27;;;;;;;;;;5079264;28;20031;-70
2022/03/25 01:11:24;;;;;;;286.33;105.60;;;;;;;;;;5080430;28;20373;-69
2022/03/25 01:13:49;;;;;;;292.60;103.77;;;;;;;;;;5080366;28;20784;-70
2022/03/25 01:16:14;;;;;;;259.23;98.80;;;;;;;;;;5081230;28;20066;-69
2022/03/25 01:18:40;;;;;;;251.97;92.97;;;;;;;;;;5081102;28;20540;-67
2022/03/25 01:21:05;;;;;;;233.87;85.97;;;;;;;;;;5080390;28;20016;-67
2022/03/25 01:23:30;;;;;;;241.97;91.40;;;;;;;;;;5080591;28;20386;-67
2022/03/25 01:25:56;;;;;;;245.20;93.60;;;;;;;;;;5080927;28;20546;-67
2022/03/25 01:28:23;;;;;;;247.10;90.03;;;;;;;;;;5080145;28;20438;-67
2022/03/25 01:30:49;;;;;;;286.00;96.00;;;;;;;;;;5080777;28;20020;-67
2022/03/25 01:33:15;;;;;;;328.77;109.30;;;;;;;;;;5080541;28;20058;-69
2022/03/25 01:35:41;;;;;;;385.23;118.73;;;;;;;;;;5083197;28;20028;-69
2022/03/25 01:38:06;;;;;;;360.40;110.30;;;;;;;;;;5084632;28;20032;-69
2022/03/25 01:40:31;;;;;;;339.73;109.40;;;;;;;;;;5084609;28;20032;-69
2022/03/25 01:42:57;;;;;;;303.43;101.97;;;;;;;;;;5084184;28;20038;-70
2022/03/25 01:45:34;;;;;;;318.77;107.60;;;;;;;;;;5084250;28;20490;-70
2022/03/25 01:48:00;;;;;;;341.30;110.00;;;;;;;;;;5087755;28;20084;-67
2022/03/25 01:50:25;;;;;;;352.40;113.87;;;;;;;;;;5093267;28;20027;-67
2022/03/25 01:52:51;;;;;;;307.27;105.43;;;;;;;;;;5083309;28;20040;-67
2022/03/25 01:55:17;;;;;;;319.30;109.60;;;;;;;;;;5084194;28;20039;-67
2022/03/25 01:57:43;;;;;;;356.60;112.93;;;;;;;;;;5084026;28;20145;-67
2022/03/25 02:00:09;;;;;;;353.70;108.97;;;;;;;;;;5083218;28;20140;-67
2022/03/25 02:02:36;;;;;;;363.63;113.30;;;;;;;;;;5079389;22;20047;-68
2022/03/25 02:05:02;;;;;;;389.57;114.93;;;;;;;;;;5060753;28;20031;-68
2022/03/25 02:07:27;;;;;;;386.73;114.43;;;;;;;;;;5066559;28;20024;-68
2022/03/25 02:09:52;;;;;;;363.90;110.63;;;;;;;;;;5062549;28;20077;-68
2022/03/25 02:12:17;;;;;;;346.30;104.50;;;;;;;;;;5063385;28;20096;-68
2022/03/25 02:14:43;;;;;;;388.33;113.60;;;;;;;;;;5062858;28;20024;-68
2022/03/25 02:17:08;;;;;;;376.73;111.50;;;;;;;;;;5063029;28;20024;-68
2022/03/25 02:19:34;;;;;;;354.17;106.27;;;;;;;;;;5061662;28;20047;-68
2022/03/25 02:21:59;;;;;;;402.27;117.07;;;;;;;;;;5063201;28;20127;-68
2022/03/25 02:24:24;;;;;;;466.73;126.67;;;;;;;;;;5062484;28;20028;-68
2022/03/25 02:26:50;;;;;;;469.23;123.63;;;;;;;;;;5062468;28;20025;-68
2022/03/25 02:29:16;;;;;;;405.00;115.30;;;;;;;;;;5061995;28;20298;-68
2022/03/25 02:31:41;;;;;;;405.00;115.47;;;;;;;;;;5063012;28;20024;-70
2022/03/25 02:34:08;;;;;;;364.27;111.17;;;;;;;;;;5062374;28;20040;-68
2022/03/25 02:36:39;;;;;;;385.47;109.43;;;;;;;;;;5062880;28;20085;-68
2022/03/25 02:39:05;;;;;;;419.40;117.07;;;;;;;;;;5067326;28;20031;-68
2022/03/25 02:41:30;;;;;;;454.37;124.00;;;;;;;;;;5063942;28;20500;-68
2022/03/25 02:43:56;;;;;;;497.93;130.37;;;;;;;;;;5062521;28;20384;-68
2022/03/25 02:46:21;;;;;;;483.37;123.43;;;;;;;;;;5061122;28;20024;-68
2022/03/25 02:48:46;;;;;;;479.80;125.53;;;;;;;;;;5073943;28;20052;-68
2022/03/25 02:51:11;;;;;;;514.07;129.97;;;;;;;;;;5062066;28;20028;-68
2022/03/25 02:53:37;;;;;;;479.87;126.40;;;;;;;;;;5062531;28;20036;-68
2022/03/25 02:56:02;;;;;;;471.93;124.80;;;;;;;;;;5062169;28;20092;-68
2022/03/25 02:58:27;;;;;;;513.90;129.90;;;;;;;;;;5062370;28;20036;-68
2022/03/25 03:00:56;;;;;;;548.40;133.47;;;;;;;;;;5062334;28;20093;-68
2022/03/25 03:03:21;;;;;;;539.67;131.63;;;;;;;;;;5061902;28;20044;-68
2022/03/25 03:05:46;;;;;;;508.87;123.73;;;;;;;;;;5061571;28;20731;-68
2022/03/25 03:08:13;;;;;;;461.80;115.00;;;;;;;;;;5062460;28;20098;-68
2022/03/25 03:10:38;;;;;;;449.83;115.03;;;;;;;;;;5061903;28;20154;-68
2022/03/25 03:13:04;;;;;;;454.67;116.03;;;;;;;;;;5062218;28;20066;-68
2022/03/25 03:15:29;;;;;;;460.30;116.27;;;;;;;;;;5061584;28;20467;-68
2022/03/25 03:17:55;;;;;;;478.53;118.43;;;;;;;;;;5062140;28;20035;-68
2022/03/25 03:20:20;;;;;;;499.77;118.93;;;;;;;;;;5061989;28;20032;-68
2022/03/25 03:22:46;;;;;;;491.77;115.43;;;;;;;;;;5061429;28;20914;-68
2022/03/25 03:25:12;;;;;;;461.13;110.53;;;;;;;;;;5061610;28;20016;-68
2022/03/25 03:27:38;;;;;;;422.43;104.10;;;;;;;;;;5061569;28;20503;-68
2022/03/25 03:30:05;;;;;;;445.87;110.90;;;;;;;;;;5061676;28;20047;-68
2022/03/25 03:32:33;;;;;;;474.60;116.70;;;;;;;;;;5061574;28;20052;-68
2022/03/25 03:34:58;;;;;;;497.37;119.63;;;;;;;;;;5060937;28;20029;-68
2022/03/25 03:37:24;;;;;;;520.53;123.63;;;;;;;;;;5060975;28;20404;-68
2022/03/25 03:39:50;;;;;;;517.20;126.47;;;;;;;;;;5061411;28;20094;-68
2022/03/25 03:42:15;;;;;;;555.03;131.53;;;;;;;;;;5061331;28;20029;-68
2022/03/25 03:44:40;;;;;;;566.23;134.90;;;;;;;;;;5060956;28;20133;-68
2022/03/25 03:47:07;;;;;;;539.27;130.20;;;;;;;;;;5065225;28;20036;-67
2022/03/25 03:49:32;;;;;;;509.87;121.53;;;;;;;;;;5060788;28;20567;-67
2022/03/25 03:51:58;;;;;;;539.73;132.33;;;;;;;;;;5056609;28;20108;-67
2022/03/25 03:54:23;;;;;;;517.60;124.63;;;;;;;;;;5061068;28;20039;-67
2022/03/25 03:56:48;;;;;;;518.77;127.90;;;;;;;;;;5060398;28;20020;-67
2022/03/25 03:59:14;;;;;;;466.90;115.97;;;;;;;;;;5061386;28;20059;-67
2022/03/25 04:01:39;;;;;;;454.63;116.10;;;;;;;;;;5060204;28;20048;-67
2022/03/25 04:04:04;;;;;;;528.90;126.13;;;;;;;;;;5062572;28;20292;-67
2022/03/25 04:06:29;;;;;;;533.93;125.90;;;;;;;;;;5060918;28;20069;-67
2022/03/25 04:08:56;;;;;;;552.57;129.47;;;;;;;;;;5060874;28;20503;-67
2022/03/25 04:11:21;;;;;;;528.77;127.30;;;;;;;;;;5060720;28;20028;-67
2022/03/25 04:13:46;;;;;;;486.50;119.23;;;;;;;;;;5060620;28;20028;-67
2022/03/25 04:16:12;;;;;;;513.47;121.17;;;;;;;;;;5060468;28;20107;-67
2022/03/25 04:18:37;;;;;;;523.77;121.63;;;;;;;;;;5061420;28;20028;-67
2022/03/25 04:21:03;;;;;;;582.43;129.00;;;;;;;;;;5061101;28;20056;-67
2022/03/25 04:23:28;;;;;;;562.70;125.03;;;;;;;;;;5060873;28;20020;-67
2022/03/25 04:25:53;;;;;;;508.73;119.43;;;;;;;;;;5060318;28;20032;-67
2022/03/25 04:28:19;;;;;;;528.30;122.27;;;;;;;;;;5060442;28;20042;-67
2022/03/25 04:30:44;;;;;;;522.83;121.37;;;;;;;;;;5060935;28;20020;-67
2022/03/25 04:33:10;;;;;;;538.20;122.67;;;;;;;;;;5060575;28;20027;-67
2022/03/25 04:35:35;;;;;;;563.50;125.00;;;;;;;;;;5059991;28;20028;-67
2022/03/25 04:38:00;;;;;;;541.43;120.97;;;;;;;;;;5061410;28;20032;-67
2022/03/25 04:40:27;;;;;;;595.80;127.17;;;;;;;;;;5066599;28;20039;-67
2022/03/25 04:42:53;;;;;;;618.07;133.60;;;;;;;;;;5060647;28;20468;-67
2022/03/25 04:45:19;;;;;;;622.17;135.70;;;;;;;;;;5060157;28;20028;-67
2022/03/25 04:47:44;;;;;;;570.23;127.17;;;;;;;;;;5062759;28;20411;-67
2022/03/25 04:50:10;;;;;;;572.53;129.70;;;;;;;;;;5060313;28;20492;-67
2022/03/25 04:52:35;;;;;;;616.40;136.20;;;;;;;;;;5060497;28;20457;-67
2022/03/25 04:55:01;;;;;;;632.47;135.87;;;;;;;;;;5059765;28;20021;-67
2022/03/25 04:57:26;;;;;;;636.57;135.77;;;;;;;;;;5059939;28;20107;-67
2022/03/25 04:59:52;;;;;;;611.83;132.27;;;;;;;;;;5060157;28;20029;-67
2022/03/25 05:02:17;;;;;;;633.57;134.97;;;;;;;;;;5048296;28;20051;-67
2022/03/25 05:04:43;;;;;;;596.60;132.13;;;;;;;;;;5059613;28;20115;-67
2022/03/25 05:07:14;;;;;;;594.33;131.17;;;;;;;;;;5060278;28;20032;-67
2022/03/25 05:09:40;;;;;;;585.80;128.27;;;;;;;;;;5061075;28;20062;-67
2022/03/25 05:12:05;;;;;;;597.30;130.47;;;;;;;;;;5064110;28;20037;-67
2022/03/25 05:14:30;;;;;;;593.83;131.30;;;;;;;;;;5063457;28;20043;-67
2022/03/25 05:16:56;;;;;;;620.93;133.60;;;;;;;;;;5063834;28;20150;-67
2022/03/25 05:19:21;;;;;;;536.20;123.77;;;;;;;;;;5063970;28;20032;-67
2022/03/25 05:21:47;;;;;;;548.97;123.93;;;;;;;;;;5064456;28;20038;-67
2022/03/25 05:24:12;;;;;;;598.60;128.70;;;;;;;;;;5063565;28;20099;-67
2022/03/25 05:26:38;;;;;;;590.60;130.07;;;;;;;;;;5063055;28;20044;-67
2022/03/25 05:29:04;;;;;;;563.80;126.77;;;;;;;;;;5063387;28;20019;-67
2022/03/25 05:31:29;;;;;;;506.03;116.40;;;;;;;;;;5064197;28;20023;-67
2022/03/25 05:33:55;;;;;;;484.80;109.63;;;;;;;;;;5071895;28;20527;-67
2022/03/25 05:36:20;;;;;;;479.43;108.37;;;;;;;;;;5067003;28;20055;-67
2022/03/25 05:38:45;;;;;;;504.27;115.97;;;;;;;;;;5067482;28;20099;-67
2022/03/25 05:41:10;;;;;;;512.90;115.97;;;;;;;;;;5063799;28;20024;-67
2022/03/25 05:43:36;;;;;;;496.27;115.07;;;;;;;;;;5063609;28;20028;-68
2022/03/25 05:46:03;;;;;;;467.77;111.93;;;;;;;;;;5063128;28;20107;-67
2022/03/25 05:48:29;;;;;;;487.73;117.17;;;;;;;;;;5063976;28;20779;-67
2022/03/25 05:50:54;;;;;;;489.33;116.40;;;;;;;;;;5063844;28;20056;-68
2022/03/25 05:53:26;;;;;;;438.07;107.57;;;;;;;;;;5064102;28;20024;-75
2022/03/25 05:55:52;;;;;;;421.57;106.33;;;;;;;;;;5063428;28;20480;-68
2022/03/25 05:58:17;;;;;;;395.43;101.50;;;;;;;;;;5065803;28;20042;-68
2022/03/25 06:00:42;;;;;;;378.87;97.97;;;;;;;;;;5062857;28;20491;-68
2022/03/25 06:03:10;;;;;;;331.33;92.73;;;;;;;;;;5062254;28;20439;-68
2022/03/25 06:05:35;;;;;;;360.67;97.73;;;;;;;;;;5063480;28;20031;-68
2022/03/25 06:08:00;;;;;;;364.80;101.53;;;;;;;;;;5062559;28;20028;-68
2022/03/25 06:10:25;;;;;;;363.33;101.77;;;;;;;;;;5063083;28;20036;-68
2022/03/25 06:12:51;;;;;;;366.17;102.70;;;;;;;;;;5063144;28;20113;-68
2022/03/25 06:15:16;;;;;;;318.47;96.60;;;;;;;;;;5063251;28;20020;-68
2022/03/25 06:17:42;;;;;;;270.53;89.47;;;;;;;;;;5061933;28;20025;-68
2022/03/25 06:20:08;;;;;;;252.73;88.97;;;;;;;;;;5062631;28;20020;-68
2022/03/25 06:22:34;;;;;;;213.97;83.33;;;;;;;;;;5061734;28;20024;-68
2022/03/25 06:24:59;;;;;;;201.83;77.63;;;;;;;;;;5061888;28;20055;-68
2022/03/25 06:27:24;;;;;;;148.80;61.30;;;;;;;;;;5062379;28;20024;-68
2022/03/25 06:29:49;;;;;;;158.00;66.57;;;;;;;;;;5062893;28;20030;-68
2022/03/25 06:32:15;;;;;;;145.40;61.60;;;;;;;;;;5063305;28;20851;-68
2022/03/25 06:34:40;;;;;;;153.70;63.90;;;;;;;;;;5065342;28;20671;-67
2022/03/25 06:37:05;;;;;;;156.53;66.10;;;;;;;;;;5062515;28;20032;-67
2022/03/25 06:39:31;;;;;;;146.97;63.10;;;;;;;;;;5062083;28;20032;-67
2022/03/25 06:41:56;;;;;;;139.87;61.10;;;;;;;;;;5065468;28;20523;-67
2022/03/25 06:44:22;;;;;;;140.90;62.63;;;;;;;;;;5061730;28;20035;-67
2022/03/25 06:46:47;;;;;;;144.07;62.30;;;;;;;;;;5062334;28;20107;-67
2022/03/25 06:49:12;;;;;;;138.03;60.27;;;;;;;;;;5061896;28;20027;-67
2022/03/25 06:51:38;;;;;;;131.97;59.37;;;;;;;;;;5062371;28;20033;-67
2022/03/25 06:54:03;;;;;;;135.50;60.80;;;;;;;;;;5062179;28;20036;-68
2022/03/25 06:56:29;;;;;;;125.77;57.67;;;;;;;;;;5061445;28;20017;-66
2022/03/25 06:58:55;;;;;;;125.30;57.40;;;;;;;;;;5061360;28;20027;-66
2022/03/25 07:01:21;;;;;;;135.47;60.70;;;;;;;;;;5062525;28;20634;-67
2022/03/25 07:03:46;;;;;;;123.87;58.80;;;;;;;;;;5061776;28;20055;-69
2022/03/25 07:06:12;;;;;;;129.17;61.67;;;;;;;;;;5061638;28;20024;-69
2022/03/25 07:08:39;;;;;;;124.93;63.13;;;;;;;;;;5064491;28;20025;-67
2022/03/25 07:11:05;;;;;;;127.50;63.77;;;;;;;;;;5062289;28;20051;-69
2022/03/25 07:13:31;;;;;;;129.37;64.13;;;;;;;;;;5062161;28;20017;-69
2022/03/25 07:15:56;;;;;;;125.90;64.93;;;;;;;;;;5061036;28;20034;-69
2022/03/25 07:18:22;;;;;;;130.13;66.67;;;;;;;;;;5061943;28;20114;-69
2022/03/25 07:20:47;;;;;;;135.90;70.22;;;;;;;;;;5060841;28;20019;-69
2022/03/25 07:23:12;;;;;;;134.63;69.57;;;;;;;;;;5062300;28;20089;-69
2022/03/25 07:25:37;;;;;;;131.00;67.15;;;;;;;;;;5062006;28;20508;-69
2022/03/25 07:28:03;;;;;;;125.28;63.83;;;;;;;;;;5062101;28;20082;-69
2022/03/25 07:30:28;;;;;;;121.95;63.40;;;;;;;;;;5062338;28;20099;-69
2022/03/25 07:32:53;;;;;;;122.65;65.03;;;;;;;;;;5061993;28;20017;-69
2022/03/25 07:35:19;;;;;;;129.23;62.05;;;;;;;;;;5061561;28;20024;-69
2022/03/25 07:37:45;;;;;;;118.97;61.38;;;;;;;;;;5062342;28;20091;-69
2022/03/25 07:40:12;;;;;;;116.30;60.78;;;;;;;;;;5062143;28;20601;-69
2022/03/25 07:42:38;;;;;;;114.22;59.60;;;;;;;;;;5061998;28;20511;-69
2022/03/25 07:45:04;;;;;;;110.95;59.38;;;;;;;;;;5061911;28;20044;-69
2022/03/25 07:47:32;;;;;;;103.25;56.05;;;;;;;;;;5062121;28;20496;-70
2022/03/25 07:49:57;;;;;;;105.88;55.83;;;;;;;;;;5061966;28;20021;-69
2022/03/25 07:52:22;;;;;;;107.15;57.10;;;;;;;;;;5061791;28;20533;-70
2022/03/25 07:54:49;;;;;;;101.50;55.78;;;;;;;;;;5049608;28;20020;-70
2022/03/25 07:57:14;;;;;;;102.57;55.42;;;;;;;;;;5061884;28;20032;-70
2022/03/25 07:59:40;;;;;;;106.88;55.88;;;;;;;;;;5061439;28;20032;-69
2022/03/25 08:02:05;;;;;;;102.75;54.25;;;;;;;;;;5061537;28;20028;-69
2022/03/25 08:04:31;;;;;;;97.95;54.95;;;;;;;;;;5061383;28;20119;-70
2022/03/25 08:06:56;;;;;;;102.53;54.08;;;;;;;;;;5061940;28;20496;-70
2022/03/25 08:09:21;;;;;;;86.75;50.78;;;;;;;;;;5061590;28;20489;-70
2022/03/25 08:11:47;;;;;;;90.97;52.72;;;;;;;;;;5061416;28;20093;-70
2022/03/25 08:14:16;;;;;;;83.07;48.22;;;;;;;;;;5062721;28;20031;-68
2022/03/25 08:16:42;;;;;;;77.75;43.95;;;;;;;;;;5061464;28;20077;-68
2022/03/25 08:19:07;;;;;;;93.40;52.67;;;;;;;;;;5061425;28;20021;-68
2022/03/25 08:21:33;;;;;;;84.75;50.40;;;;;;;;;;5061336;28;20146;-69
2022/03/25 08:29:26;;;;;;;81.30;49.65;;;;;;;;;;5058640;28;20051;-69
2022/03/25 08:31:51;;;;;;;80.75;50.70;;;;;;;;;;5061788;28;20388;-69
2022/03/25 08:34:17;;;;;;;88.50;52.50;;;;;;;;;;5061280;28;20020;-69
2022/03/25 08:36:43;;;;;;;80.65;52.45;;;;;;;;;;5061426;28;20027;-69
2022/03/25 08:39:09;;;;;;;82.20;50.42;;;;;;;;;;5060951;28;20040;-70
2022/03/25 08:41:34;;;;;;;79.82;50.90;;;;;;;;;;5064133;28;20484;-70
2022/03/25 08:43:59;;;;;;;80.57;51.67;;;;;;;;;;5063723;28;20013;-70
2022/03/25 08:46:24;;;;;;;84.93;51.25;;;;;;;;;;5061413;28;20539;-69
2022/03/25 08:48:50;;;;;;;81.03;50.08;;;;;;;;;;5060998;28;20566;-69
2022/03/25 08:51:15;;;;;;;80.95;48.67;;;;;;;;;;5061036;28;20031;-70
2022/03/25 08:53:41;;;;;;;76.57;48.00;;;;;;;;;;5061347;28;20021;-70
2022/03/25 08:56:07;;;;;;;74.05;47.88;;;;;;;;;;5061168;28;20512;-70
2022/03/25 08:58:33;;;;;;;77.13;45.78;;;;;;;;;;5061056;28;20033;-70
2022/03/25 09:00:58;;;;;;;66.18;42.17;;;;;;;;;;5060676;28;20012;-70
2022/03/25 09:03:24;;;;;;;66.97;41.42;;;;;;;;;;5060969;28;20147;-70
2022/03/25 09:05:49;;;;;;;74.30;42.90;;;;;;;;;;5060761;28;20078;-70
2022/03/25 09:08:15;;;;;;;70.95;41.78;;;;;;;;;;5061012;28;20024;-69
2022/03/25 09:10:41;;;;;;;72.93;45.38;;;;;;;;;;5060791;28;20020;-69
2022/03/25 09:13:07;;;;;;;69.38;43.08;;;;;;;;;;5061151;28;20047;-69
2022/03/25 09:15:32;;;;;;;68.57;42.65;;;;;;;;;;5060741;28;20074;-69
2022/03/25 09:17:57;;;;;;;64.57;40.97;;;;;;;;;;5060808;28;20056;-69
2022/03/25 09:20:22;;;;;;;62.33;39.35;;;;;;;;;;5061084;28;20078;-69
2022/03/25 09:22:48;;;;;;;64.65;41.63;;;;;;;;;;5061068;28;20031;-69
2022/03/25 09:25:14;;;;;;;62.97;40.15;;;;;;;;;;5060890;28;20101;-69
2022/03/25 09:27:39;;;;;;;64.88;41.47;;;;;;;;;;5060558;28;20036;-69
2022/03/25 09:30:05;;;;;;;63.35;41.83;;;;;;;;;;5060770;28;20108;-69
2022/03/25 09:32:30;;;;;;;65.30;42.33;;;;;;;;;;5060819;28;20032;-68
2022/03/25 09:35:13;;;;;;;66.25;43.05;;;;;;;;;;5060832;28;20462;-68
2022/03/25 09:37:49;;;;;;;62.75;41.92;;;;;;;;;;5061042;28;20024;-68
2022/03/25 09:40:16;;;;;;;65.22;40.67;;;;;;;;;;5060176;28;20043;-68
2022/03/25 09:42:41;;;;;;;65.38;40.88;;;;;;;;;;5060612;28;20060;-68
2022/03/25 09:45:08;;;;;;;61.08;40.08;;;;;;;;;;5060727;28;20094;-68
2022/03/25 09:47:33;;;;;;;65.00;41.13;;;;;;;;;;5060102;28;20025;-68
2022/03/25 09:49:59;;;;;;;62.20;39.70;;;;;;;;;;5060560;28;20035;-68
2022/03/25 09:52:26;;;;;;;66.75;39.78;;;;;;;;;;5063378;28;20027;-68
2022/03/25 09:54:51;;;;;;;60.55;38.50;;;;;;;;;;5060694;28;20024;-68
2022/03/25 09:57:17;;;;;;;51.97;34.75;;;;;;;;;;5063655;28;20557;-68
2022/03/25 09:59:42;;;;;;;52.42;32.28;;;;;;;;;;5063843;28;20056;-68
2022/03/25 10:02:08;;;;;;;51.47;32.75;;;;;;;;;;5063926;28;20745;-68
2022/03/25 10:04:40;;;;;;;48.30;31.50;;;;;;;;;;5063868;28;20058;-68
2022/03/25 10:07:18;;;;;;;47.78;31.13;;;;;;;;;;5064100;28;20016;-68
2022/03/25 10:09:43;;;;;;;48.80;29.90;;;;;;;;;;5049144;28;20017;-68
2022/03/25 10:12:22;;;;;;;48.33;29.98;;;;;;;;;;5064202;28;20013;-68
2022/03/25 10:15:08;;;;;;;49.75;31.38;;;;;;;;;;5064342;28;20070;-72
2022/03/25 10:17:43;;;;;;;51.08;31.27;;;;;;;;;;5063828;28;20107;-70
2022/03/25 10:20:10;;;;;;;52.22;30.95;;;;;;;;;;5063467;28;20111;-70
2022/03/25 10:22:35;;;;;;;56.15;32.42;;;;;;;;;;5063424;28;20032;-70
2022/03/25 10:25:01;;;;;;;63.17;33.58;;;;;;;;;;5063137;28;20024;-67
2022/03/25 10:27:29;;;;;;;54.53;31.23;;;;;;;;;;5063813;28;20021;-67
2022/03/25 10:29:55;;;;;;;51.97;29.98;;;;;;;;;;5063442;28;20116;-67
2022/03/25 10:32:24;;;;;;;54.03;29.13;;;;;;;;;;5063797;28;20556;-67
2022/03/25 10:35:07;;;;;;;48.88;28.20;;;;;;;;;;5063273;28;20382;-67
2022/03/25 10:37:32;;;;;;;51.72;29.08;;;;;;;;;;5066343;28;20031;-67
2022/03/25 10:39:58;;;;;;;50.85;29.70;;;;;;;;;;5063219;28;20492;-67
2022/03/25 10:42:23;;;;;;;54.83;28.42;;;;;;;;;;5065980;28;20024;-67
2022/03/25 10:44:49;;;;;;;46.28;25.73;;;;;;;;;;5062885;28;20055;-67
2022/03/25 10:47:14;;;;;;;40.42;22.20;;;;;;;;;;5062931;28;20029;-67
2022/03/25 10:49:43;;;;;;;43.60;23.92;;;;;;;;;;5063093;28;20059;-67
2022/03/25 10:52:19;;;;;;;47.05;25.13;;;;;;;;;;5063373;28;20574;-67
2022/03/25 10:54:44;;;;;;;51.03;25.83;;;;;;;;;;5062517;28;20035;-67
2022/03/25 10:57:09;;;;;;;44.58;24.55;;;;;;;;;;5063361;28;20025;-70
2022/03/25 10:59:35;;;;;;;43.55;23.63;;;;;;;;;;5063071;28;20039;-70
2022/03/25 11:02:01;;;;;;;39.15;20.92;;;;;;;;;;5062857;28;20571;-70
2022/03/25 11:04:27;;;;;;;33.55;18.85;;;;;;;;;;5062247;28;20045;-70
2022/03/25 11:06:52;;;;;;;31.30;16.83;;;;;;;;;;5062604;28;20059;-70
2022/03/25 11:09:18;;;;;;;33.63;17.45;;;;;;;;;;5062812;28;20027;-70
2022/03/25 11:11:45;;;;;;;42.22;21.17;;;;;;;;;;5062237;28;20043;-70
2022/03/25 11:14:11;;;;;;;38.95;20.45;;;;;;;;;;5062113;28;20022;-67
2022/03/25 11:16:41;;;;;;;36.40;19.33;;;;;;;;;;5062603;28;20427;-68
2022/03/25 11:19:08;;;;;;;41.72;20.25;;;;;;;;;;5062563;28;20114;-67
2022/03/25 11:21:35;;;;;;;39.50;20.35;;;;;;;;;;5062822;28;20029;-67
2022/03/25 11:24:03;;;;;;;35.28;19.27;;;;;;;;;;5062113;28;20456;-67
2022/03/25 11:26:29;;;;;;;41.92;19.30;;;;;;;;;;5062418;28;20032;-67
2022/03/25 11:28:56;;;;;;;37.45;19.23;;;;;;;;;;5062324;28;20031;-67
2022/03/25 11:31:24;;;;;;;37.47;20.25;;;;;;;;;;5062056;28;20024;-68
2022/03/25 11:34:12;;;;;;;35.33;19.33;;;;;;;;;;5061999;28;20051;-68
2022/03/25 11:36:40;;;;;;;39.13;19.73;;;;;;;;;;5053607;28;20082;-67
2022/03/25 11:39:35;;;;;;;36.25;17.40;;;;;;;;;;5061333;28;20789;-67
2022/03/25 11:42:03;;;;;;;34.05;16.88;;;;;;;;;;5059316;28;20033;-67
2022/03/25 11:44:29;;;;;;;30.52;16.35;;;;;;;;;;5061037;28;20104;-67
2022/03/25 11:47:00;;;;;;;36.65;17.95;;;;;;;;;;5061213;28;20103;-68
2022/03/25 11:49:30;;;;;;;31.45;17.92;;;;;;;;;;5061031;28;20383;-68
2022/03/25 11:51:55;;;;;;;40.80;19.80;;;;;;;;;;5061664;28;20379;-70
2022/03/25 11:54:43;;;;;;;38.13;16.90;;;;;;;;;;5060444;28;20115;-68
2022/03/25 11:57:24;;;;;;;35.42;19.13;;;;;;;;;;5062070;28;20559;-68
2022/03/25 11:59:51;;;;;;;37.17;18.15;;;;;;;;;;5062839;28;20085;-68
2022/03/25 12:02:23;;;;;;;36.55;17.20;;;;;;;;;;5061089;28;20072;-68
2022/03/25 12:04:48;;;;;;;34.15;17.75;;;;;;;;;;5063604;28;20085;-68
2022/03/25 12:07:16;;;;;;;33.50;17.58;;;;;;;;;;5062003;28;20032;-68
2022/03/25 12:09:43;;;;;;;34.78;17.80;;;;;;;;;;5061593;28;20024;-68
2022/03/25 12:12:09;;;;;;;34.25;17.67;;;;;;;;;;5061720;28;20104;-68
2022/03/25 12:14:36;;;;;;;39.72;19.20;;;;;;;;;;5061629;28;20440;-68
2022/03/25 12:17:05;;;;;;;43.28;19.40;;;;;;;;;;5061305;28;20031;-67
2022/03/25 12:19:38;;;;;;;36.25;18.65;;;;;;;;;;5060499;28;20020;-67
2022/03/25 12:22:25;;;;;;;38.75;19.00;;;;;;;;;;5061628;28;20118;-70
2022/03/25 12:24:53;;;;;;;39.88;19.65;;;;;;;;;;5060624;28;20078;-70
2022/03/25 12:27:19;;;;;;;37.63;19.00;;;;;;;;;;5061232;28;20035;-70
2022/03/25 12:29:48;;;;;;;32.55;17.52;;;;;;;;;;5061120;28;20026;-67
2022/03/25 12:32:15;;;;;;;29.88;16.17;;;;;;;;;;5061695;28;20017;-66
2022/03/25 12:34:41;;;;;;;33.97;18.00;;;;;;;;;;5062443;28;20101;-66
2022/03/25 12:37:09;;;;;;;32.83;18.65;;;;;;;;;;5063053;28;20477;-67
2022/03/25 12:39:35;;;;;;;33.00;17.83;;;;;;;;;;5063500;28;20036;-67
2022/03/25 12:42:00;;;;;;;33.55;18.30;;;;;;;;;;5061413;28;20614;-66
2022/03/25 12:44:26;;;;;;;31.02;17.23;;;;;;;;;;5061306;28;20028;-67
2022/03/25 12:46:52;;;;;;;35.70;18.27;;;;;;;;;;5062480;28;20024;-68
2022/03/25 12:49:17;;;;;;;34.25;19.55;;;;;;;;;;5061334;28;20013;-68
2022/03/25 12:51:53;;;;;;;27.98;17.48;;;;;;;;;;5061236;28;20023;-68
2022/03/25 12:54:19;;;;;;;29.63;18.08;;;;;;;;;;5060916;28;20056;-68
2022/03/25 12:56:57;;;;;;;35.92;20.30;;;;;;;;;;5061119;28;20048;-68
2022/03/25 12:59:33;;;;;;;37.78;18.88;;;;;;;;;;5060349;28;20428;-68
2022/03/25 13:02:07;;;;;;;28.55;15.27;;;;;;;;;;5061099;28;20019;-68
2022/03/25 13:04:32;;;;;;;28.65;16.55;;;;;;;;;;5061054;28;20404;-67
2022/03/25 13:07:18;;;;;;;34.28;16.50;;;;;;;;;;5060631;28;20036;-68
2022/03/25 13:09:53;;;;;;;33.75;17.92;;;;;;;;;;5060381;28;20107;-68
2022/03/25 13:12:27;;;;;;;32.28;15.65;;;;;;;;;;5061270;28;20020;-68
2022/03/25 13:14:53;;;;;;;27.85;13.30;;;;;;;;;;5060937;28;20051;-68
2022/03/25 13:17:25;;;;;;;30.45;14.60;;;;;;;;;;5060898;28;20613;-68
2022/03/25 13:19:59;;;;;;;26.13;12.98;;;;;;;;;;5060937;28;20381;-68
2022/03/25 13:22:24;;;;;;;29.00;13.07;;;;;;;;;;5061333;28;20469;-68
2022/03/25 13:24:51;;;;;;;27.10;13.45;;;;;;;;;;5060917;28;20020;-68
2022/03/25 13:27:16;;;;;;;29.25;14.05;;;;;;;;;;5060442;28;20044;-68
2022/03/25 13:29:41;;;;;;;25.15;13.45;;;;;;;;;;5060164;28;20516;-68
2022/03/25 13:32:07;;;;;;;33.00;14.68;;;;;;;;;;5063312;28;20023;-68
2022/03/25 13:34:35;;;;;;;26.80;15.05;;;;;;;;;;5064784;28;20024;-68
2022/03/25 13:37:00;;;;;;;24.02;15.38;;;;;;;;;;5063540;28;20024;-68
2022/03/25 13:39:30;;;;;;;29.65;15.93;;;;;;;;;;5064547;28;20082;-68
2022/03/25 13:42:00;;;;;;;30.17;16.38;;;;;;;;;;5064399;28;20631;-68
2022/03/25 13:44:25;;;;;;;27.95;15.45;;;;;;;;;;5064428;28;20507;-68
2022/03/25 13:46:55;;;;;;;28.02;14.45;;;;;;;;;;5064180;28;20046;-67
2022/03/25 13:49:22;;;;;;;36.15;16.23;;;;;;;;;;5064342;28;20020;-68
2022/03/25 13:51:47;;;;;;;30.15;16.20;;;;;;;;;;5064898;28;20546;-68
2022/03/25 13:54:26;;;;;;;31.10;15.80;;;;;;;;;;5066166;28;20012;-68
2022/03/25 13:56:52;;;;;;;31.38;15.75;;;;;;;;;;5064439;28;20035;-68
2022/03/25 13:59:24;;;;;;;32.25;15.25;;;;;;;;;;5063907;28;20026;-68
2022/03/25 14:01:49;;;;;;;;;;;;;;;;;;5064786;28;20572;-68
2022/03/25 14:04:15;;;;;;;26.08;14.15;;;;;;;;;;5063680;28;20419;-68
2022/03/25 14:06:46;;;;;;;26.10;14.35;;;;;;;;;;5063515;28;20275;-68
2022/03/25 14:09:23;;;;;;;26.58;14.65;;;;;;;;;;5063694;28;20031;-68